»·PEaware :: N13M KSNA-KSMO

N13M :: KSNA-KSMO

FLIGHT INFORMATION

Flight Status: Arrived
Operator: Privately registered:
United States
More flights under this callsign
Pilot: Zhuojun Y. (28503)
Aircraft: SOCATA TBM-900
(TBM9)
More flights by this aircraft type
Origin: KSNA John Wayne-Orange Co
United States
Destination: KSMO Santa Monica Mun
United States
More flights between these airports :: More routes between these airports
Route: SLI V459 DARTS
File this flight plan on PilotEdge
Remarks: TEC route CSTP10 I4 RATING
Altitude:
(Current/Filed)
8,000ft
Speed:
(Current/Filed)
220kts
Departed: 05-Apr-20 08:41 PM
Arrived: 05-Apr-20 09:05 PM
Distance/Time
Traveled:
0nm/0:24
Distance/Time
To Go:
Arrived

Flight Plot

Page will automatically refresh every two minutes.


Map Options




Map Legend


Flown Route
Filed Route
Departure Airport
Arrival Airport
Navaid (VOR, NDB)
Fix

Horizontal Profiles

Position Reports

Time Latitude Longitude Heading Altitude Ground
Speed
05-Apr-20 20:26 33.676704 -117.870555 209 59ft 0kts
05-Apr-20 20:27 33.676704 -117.870555 209 59ft 0kts
05-Apr-20 20:28 33.676703 -117.870556 209 59ft 0kts
05-Apr-20 20:29 33.676703 -117.870556 209 59ft 0kts
05-Apr-20 20:30 33.676703 -117.870556 209 59ft 0kts
05-Apr-20 20:31 33.676703 -117.870556 209 59ft 0kts
05-Apr-20 20:32 33.676703 -117.870556 209 59ft 0kts
05-Apr-20 20:33 33.676703 -117.870556 212 59ft 0kts
05-Apr-20 20:34 33.679203 -117.868117 24 59ft 14kts
05-Apr-20 20:35 33.680976 -117.867161 28 59ft 5kts
05-Apr-20 20:36 33.681219 -117.866487 108 59ft 0kts
05-Apr-20 20:37 33.681219 -117.866487 108 59ft 0kts
05-Apr-20 20:38 33.681219 -117.866487 108 59ft 0kts
05-Apr-20 20:39 33.680529 -117.865775 203 59ft 10kts
05-Apr-20 20:40 33.664125 -117.876460 211 424ft 105kts
05-Apr-20 20:41 33.658253 -117.907108 288 1756ft 119kts
05-Apr-20 20:42 33.657760 -117.947428 202 2985ft 157kts
05-Apr-20 20:43 33.611831 -117.960096 186 4080ft 147kts
05-Apr-20 20:44 33.573260 -117.965590 186 5660ft 141kts
05-Apr-20 20:45 33.545436 -117.987338 287 7042ft 141kts
05-Apr-20 20:46 33.580595 -117.992271 11 8064ft 161kts
05-Apr-20 20:47 33.631306 -117.998244 345 8044ft 196kts
05-Apr-20 20:48 33.685143 -118.017304 342 8037ft 202kts
05-Apr-20 20:49 33.738943 -118.037763 342 8036ft 203kts
05-Apr-20 20:50 33.792734 -118.060153 334 8037ft 205kts
05-Apr-20 20:51 33.846366 -118.090957 334 8038ft 216kts
05-Apr-20 20:52 33.901061 -118.122399 334 8036ft 218kts
05-Apr-20 20:53 33.956046 -118.154055 334 8036ft 218kts
05-Apr-20 20:54 34.009527 -118.184894 334 8029ft 202kts
05-Apr-20 20:55 34.058925 -118.213411 334 8035ft 194kts
05-Apr-20 20:56 34.113241 -118.228415 11 7016ft 220kts
05-Apr-20 20:57 34.174610 -118.217132 338 5697ft 227kts
05-Apr-20 20:58 34.173424 -118.276083 194 4384ft 225kts
05-Apr-20 20:59 34.127399 -118.318955 224 3630ft 211kts
05-Apr-20 21:00 34.088477 -118.365187 224 2382ft 184kts
05-Apr-20 21:01 34.058113 -118.401218 224 1401ft 129kts
05-Apr-20 21:02 34.035044 -118.429002 225 772ft 106kts
05-Apr-20 21:03 34.016686 -118.450365 222 138ft 49kts
05-Apr-20 21:04 34.014929 -118.453170 314 137ft 0kts
05-Apr-20 21:05 34.015212 -118.453172 44 137ft 8kts
05-Apr-20 21:06 34.016696 -118.452172 307 137ft 0kts
05-Apr-20 21:07 34.016696 -118.452172 307 137ft 0kts
05-Apr-20 21:08 34.016696 -118.452172 307 137ft 0kts
05-Apr-20 21:09 34.016696 -118.452172 307 137ft 0kts
05-Apr-20 21:10 34.016696 -118.452172 307 137ft 0kts
05-Apr-20 21:11 34.016696 -118.452172 307 137ft 0kts
05-Apr-20 21:12 33.676704 -117.870555 209 59ft 0kts
05-Apr-20 21:13 33.676704 -117.870555 209 59ft 0kts
05-Apr-20 21:14 33.676704 -117.870555 209 59ft 0kts
05-Apr-20 21:15 33.676704 -117.870555 209 59ft 0kts
05-Apr-20 21:16 33.676704 -117.870555 209 59ft 0kts

Navigation Log

Ident Type
Flight plan parsing failed, navigation log unavailable